createdAt,value
2022-12-18T00:01:35.103Z,40.60
2022-12-18T00:04:30.543Z,40.52
2022-12-18T00:07:17.394Z,40.54
2022-12-18T00:10:11.737Z,40.53
2022-12-18T00:13:05.180Z,40.59
2022-12-18T00:16:01.523Z,40.32
2022-12-18T00:18:50.317Z,40.47
2022-12-18T00:21:43.502Z,40.63
2022-12-18T00:24:43.529Z,40.55
2022-12-18T00:27:36.536Z,40.32
2022-12-18T00:30:23.616Z,40.43
2022-12-18T00:33:16.582Z,40.26
2022-12-18T00:36:05.471Z,40.42
2022-12-18T00:39:00.564Z,40.29
2022-12-18T00:42:12.512Z,40.37
2022-12-18T00:44:59.996Z,40.39
2022-12-18T00:47:53.580Z,40.28
2022-12-18T00:50:40.561Z,40.20
2022-12-18T00:53:33.567Z,40.26
2022-12-18T00:56:23.818Z,40.43
2022-12-18T00:59:17.529Z,40.30
2022-12-18T01:02:10.585Z,40.21
2022-12-18T01:04:57.461Z,40.00
2022-12-18T01:07:50.544Z,40.38
2022-12-18T01:10:37.421Z,40.08
2022-12-18T01:13:30.522Z,39.81
2022-12-18T01:16:25.591Z,39.78
2022-12-18T01:19:18.599Z,39.82
2022-12-18T01:22:05.421Z,40.03
2022-12-18T01:25:05.722Z,39.94
2022-12-18T01:27:52.719Z,39.93
2022-12-18T01:30:45.519Z,39.95
2022-12-18T01:33:32.359Z,39.50
2022-12-18T01:36:28.625Z,39.46
2022-12-18T01:39:16.266Z,39.50
2022-12-18T01:42:20.595Z,39.83
2022-12-18T01:45:13.086Z,39.83
2022-12-18T01:48:09.536Z,39.85
2022-12-18T01:50:56.884Z,39.94
2022-12-18T01:53:51.566Z,39.83
2022-12-18T01:56:38.394Z,39.56
2022-12-18T01:59:31.559Z,39.57
2022-12-18T02:02:18.946Z,39.46
2022-12-18T02:05:12.567Z,39.38
2022-12-18T02:08:11.525Z,39.02
2022-12-18T02:11:16.557Z,39.40
2022-12-18T02:14:24.565Z,39.45
2022-12-18T02:17:27.621Z,39.66
2022-12-18T02:20:42.613Z,39.62
2022-12-18T02:24:01.585Z,39.49
2022-12-18T02:26:58.603Z,39.71
2022-12-18T02:29:57.628Z,39.13
2022-12-18T02:32:56.609Z,39.31
2022-12-18T02:35:52.595Z,39.28
2022-12-18T02:38:53.596Z,39.61
2022-12-18T02:41:47.584Z,39.61
2022-12-18T02:44:50.369Z,39.72
2022-12-18T02:47:49.652Z,39.26
2022-12-18T02:50:42.629Z,39.28
2022-12-18T02:53:47.641Z,39.30
2022-12-18T02:56:53.612Z,39.02
2022-12-18T02:59:57.588Z,39.12
2022-12-18T03:03:04.713Z,39.02
2022-12-18T03:06:05.555Z,38.98
2022-12-18T03:09:05.656Z,38.88
2022-12-18T03:12:26.179Z,39.17
2022-12-18T03:15:26.599Z,39.31
2022-12-18T03:18:21.696Z,39.35
2022-12-18T03:21:17.545Z,38.82
2022-12-18T03:24:15.672Z,39.04
2022-12-18T03:27:14.565Z,38.85
2022-12-18T03:30:15.602Z,38.72
2022-12-18T03:33:25.084Z,39.00
2022-12-18T03:36:18.611Z,39.17
2022-12-18T03:39:11.722Z,38.99
2022-12-18T03:42:23.664Z,38.80
2022-12-18T03:45:34.665Z,38.71
2022-12-18T03:48:35.659Z,38.71
2022-12-18T03:51:40.650Z,39.02
2022-12-18T03:54:35.666Z,38.60
2022-12-18T03:57:33.626Z,38.37
2022-12-18T04:00:21.590Z,38.55
2022-12-18T04:03:17.672Z,38.45
2022-12-18T04:06:06.405Z,38.63
2022-12-18T04:09:00.685Z,38.57
2022-12-18T04:11:48.501Z,39.18
2022-12-18T04:14:42.670Z,38.45
2022-12-18T04:17:29.475Z,38.34
2022-12-18T04:20:23.687Z,38.59
2022-12-18T04:23:10.515Z,38.71
2022-12-18T04:26:03.611Z,38.62
2022-12-18T04:28:56.717Z,38.90
2022-12-18T04:31:49.681Z,39.05
2022-12-18T04:34:42.641Z,38.49
2022-12-18T04:37:35.634Z,38.63
2022-12-18T04:40:22.456Z,38.26
2022-12-18T04:43:15.750Z,38.23
2022-12-18T04:46:14.688Z,38.28
2022-12-18T04:49:01.470Z,38.42
2022-12-18T04:51:54.688Z,38.29
2022-12-18T04:54:42.178Z,38.28
2022-12-18T04:57:35.645Z,38.52
2022-12-18T05:00:23.079Z,38.21
2022-12-18T05:03:16.693Z,38.32
2022-12-18T05:06:04.908Z,38.29
2022-12-18T05:08:58.667Z,38.33
2022-12-18T05:11:45.401Z,38.32
2022-12-18T05:14:39.682Z,38.31
2022-12-18T05:17:26.470Z,38.23
2022-12-18T05:20:20.711Z,38.39
2022-12-18T05:23:13.711Z,38.57
2022-12-18T05:26:15.723Z,38.19
2022-12-18T05:29:15.680Z,38.05
2022-12-18T05:32:02.425Z,38.12
2022-12-18T05:34:55.665Z,37.91
2022-12-18T05:37:43.395Z,38.04
2022-12-18T05:40:36.713Z,37.94
2022-12-18T05:43:27.022Z,38.05
2022-12-18T05:46:22.773Z,37.80
2022-12-18T05:49:10.217Z,37.91
2022-12-18T05:52:03.744Z,37.78
2022-12-18T05:54:50.537Z,37.88
2022-12-18T05:57:43.719Z,37.96
2022-12-18T06:00:31.473Z,38.01
2022-12-18T06:03:29.270Z,37.99
2022-12-18T06:06:33.701Z,38.11
2022-12-18T06:09:20.606Z,38.24
2022-12-18T06:12:15.065Z,37.84
2022-12-18T06:15:01.914Z,38.31
2022-12-18T06:17:54.713Z,38.04
2022-12-18T06:20:42.462Z,37.86
2022-12-18T06:23:35.725Z,37.86
2022-12-18T06:26:29.805Z,37.74
2022-12-18T06:29:22.717Z,37.84
2022-12-18T06:32:09.616Z,37.78
2022-12-18T06:35:02.749Z,37.70
2022-12-18T06:37:55.749Z,37.77
2022-12-18T06:40:48.755Z,37.54
2022-12-18T06:43:42.222Z,37.70
2022-12-18T06:46:35.749Z,37.76
2022-12-18T06:49:30.606Z,37.91
2022-12-18T06:52:17.814Z,37.73
2022-12-18T06:55:12.713Z,37.70
2022-12-18T06:58:05.777Z,37.83
2022-12-18T07:00:59.746Z,37.78
2022-12-18T07:03:46.619Z,37.83
2022-12-18T07:06:39.716Z,37.93
2022-12-18T07:09:32.730Z,37.80
2022-12-18T07:12:25.722Z,37.62
2022-12-18T07:15:12.762Z,37.63
2022-12-18T07:18:05.770Z,37.43
2022-12-18T07:20:52.549Z,37.52
2022-12-18T07:23:46.841Z,37.68
2022-12-18T07:26:46.753Z,37.26
2022-12-18T07:29:39.792Z,37.39
2022-12-18T07:32:32.760Z,37.47
2022-12-18T07:35:24.755Z,37.27
2022-12-18T07:38:18.776Z,37.31
2022-12-18T07:41:13.973Z,37.29
2022-12-18T07:43:48.745Z,35.49
2022-12-18T07:46:36.577Z,36.57
2022-12-18T07:49:29.826Z,35.68
2022-12-18T07:52:25.931Z,37.18
2022-12-18T07:55:19.788Z,37.08
2022-12-18T07:58:06.779Z,36.94
2022-12-18T08:01:00.825Z,36.91
2022-12-18T08:03:53.813Z,36.98
2022-12-18T08:06:48.208Z,37.07
2022-12-18T08:09:35.401Z,36.96
2022-12-18T08:12:28.777Z,37.20
2022-12-18T08:15:15.953Z,37.25
2022-12-18T08:18:14.120Z,37.19
2022-12-18T08:21:37.805Z,37.23
2022-12-18T08:24:30.867Z,37.14
2022-12-18T08:27:30.848Z,36.94
2022-12-18T08:30:24.933Z,36.99
2022-12-18T08:33:17.776Z,37.14
2022-12-18T08:36:17.285Z,37.08
2022-12-18T08:39:12.562Z,35.98
2022-12-18T08:42:18.514Z,36.77
2022-12-18T08:45:12.813Z,36.55
2022-12-18T08:47:59.663Z,36.71
2022-12-18T08:51:07.057Z,36.72
2022-12-18T08:53:54.186Z,37.07
2022-12-18T08:56:47.823Z,36.72
2022-12-18T08:59:40.809Z,36.80
2022-12-18T09:02:27.901Z,37.08
2022-12-18T09:05:21.814Z,37.06
2022-12-18T09:08:09.241Z,37.35
2022-12-18T09:11:02.824Z,36.96
2022-12-18T09:13:49.937Z,37.19
2022-12-18T09:16:43.892Z,37.22
2022-12-18T09:19:37.817Z,37.19
2022-12-18T09:22:24.674Z,37.11
2022-12-18T09:25:18.810Z,36.85
2022-12-18T09:28:26.803Z,37.23
2022-12-18T09:31:14.509Z,37.09
2022-12-18T09:34:07.866Z,37.15
2022-12-18T09:37:00.884Z,37.08
2022-12-18T09:39:53.935Z,36.80
2022-12-18T09:42:41.009Z,36.85
2022-12-18T09:45:35.938Z,36.71
2022-12-18T09:48:35.816Z,36.50
2022-12-18T09:51:41.870Z,36.88
2022-12-18T09:54:45.887Z,36.96
2022-12-18T09:57:38.270Z,37.08
2022-12-18T10:00:32.892Z,37.35
2022-12-18T10:03:19.802Z,36.98
2022-12-18T10:06:22.881Z,36.98
2022-12-18T10:09:38.483Z,37.04
2022-12-18T10:13:02.516Z,37.05
2022-12-18T10:16:23.950Z,36.13
2022-12-18T10:19:28.966Z,36.88
2022-12-18T10:22:40.845Z,37.05
2022-12-18T10:25:45.925Z,36.95
2022-12-18T10:28:47.877Z,36.95
2022-12-18T10:31:34.811Z,37.06
2022-12-18T10:34:27.921Z,37.02
2022-12-18T10:37:18.634Z,37.10
2022-12-18T10:40:22.660Z,37.00
2022-12-18T10:43:14.443Z,36.93
2022-12-18T10:46:25.382Z,37.22
2022-12-18T10:49:35.860Z,37.04
2022-12-18T10:52:26.159Z,37.15
2022-12-18T10:55:23.927Z,37.20
2022-12-18T10:58:40.526Z,37.23
2022-12-18T11:01:29.416Z,37.23
2022-12-18T11:04:30.925Z,37.06
2022-12-18T11:07:17.779Z,37.22
2022-12-18T11:10:11.902Z,37.36
2022-12-18T11:13:11.736Z,37.27
2022-12-18T11:16:07.265Z,37.39
2022-12-18T11:18:54.528Z,37.45
2022-12-18T11:21:49.936Z,37.78
2022-12-18T11:24:53.125Z,37.74
2022-12-18T11:28:05.918Z,38.09
2022-12-18T11:31:25.652Z,38.11
2022-12-18T11:34:31.024Z,38.20
2022-12-18T11:37:26.973Z,38.27
2022-12-18T11:40:24.045Z,38.32
2022-12-18T11:43:39.962Z,38.20
2022-12-18T11:46:50.995Z,38.43
2022-12-18T11:49:42.149Z,38.22
2022-12-18T11:52:45.930Z,38.36
2022-12-18T11:55:53.910Z,38.36
2022-12-18T11:59:12.935Z,38.46
2022-12-18T12:02:36.108Z,38.43
2022-12-18T12:05:29.095Z,38.69
2022-12-18T12:08:44.896Z,38.26
2022-12-18T12:11:55.974Z,38.41
2022-12-18T12:15:02.955Z,38.68
2022-12-18T12:18:13.982Z,38.59
2022-12-18T12:21:17.347Z,38.64
2022-12-18T12:24:19.960Z,38.69
2022-12-18T12:27:21.982Z,38.85
2022-12-18T12:30:18.981Z,38.87
2022-12-18T12:33:23.877Z,38.92
2022-12-18T12:36:47.967Z,38.90
2022-12-18T12:39:49.938Z,38.75
2022-12-18T12:43:09.926Z,38.76
2022-12-18T12:46:27.048Z,38.92
2022-12-18T12:49:24.930Z,39.01
2022-12-18T12:52:24.821Z,39.04
2022-12-18T12:55:33.979Z,39.12
2022-12-18T12:58:59.925Z,38.98
2022-12-18T13:02:23.002Z,39.11
2022-12-18T13:05:29.607Z,39.04
2022-12-18T13:08:56.142Z,38.94
2022-12-18T13:12:12.013Z,38.98
2022-12-18T13:15:28.004Z,39.19
2022-12-18T13:18:28.946Z,39.11
2022-12-18T13:21:31.995Z,38.90
2022-12-18T13:24:34.987Z,38.98
2022-12-18T13:28:00.025Z,38.84
2022-12-18T13:30:57.275Z,38.49
2022-12-18T13:37:32.988Z,38.92
2022-12-18T13:40:48.056Z,39.05
2022-12-18T13:43:41.443Z,38.86
2022-12-18T13:46:37.959Z,39.05
2022-12-18T13:49:45.991Z,39.08
2022-12-18T13:52:46.994Z,38.95
2022-12-18T13:55:34.699Z,38.91
2022-12-18T13:58:28.037Z,38.92
2022-12-18T14:01:24.903Z,38.89
2022-12-18T14:04:25.011Z,39.04
2022-12-18T14:07:21.001Z,39.04
2022-12-18T14:10:44.380Z,38.89
2022-12-18T14:13:37.062Z,39.09
2022-12-18T14:16:38.110Z,39.11
2022-12-18T14:19:32.988Z,39.00
2022-12-18T14:22:29.320Z,38.90
2022-12-18T14:25:37.042Z,38.84
2022-12-18T14:28:31.058Z,38.93
2022-12-18T14:31:37.052Z,38.93
2022-12-18T14:34:34.020Z,39.20
2022-12-18T14:37:26.227Z,39.12
2022-12-18T14:40:22.217Z,38.90
2022-12-18T14:43:17.982Z,39.04
2022-12-18T14:46:27.109Z,39.06
2022-12-18T14:49:35.081Z,38.89
2022-12-18T14:52:30.313Z,39.02
2022-12-18T14:55:29.048Z,39.09
2022-12-18T14:58:18.776Z,38.90
2022-12-18T15:01:12.045Z,38.94
2022-12-18T15:04:00.574Z,39.16
2022-12-18T15:07:11.013Z,39.00
2022-12-18T15:10:19.161Z,39.05
2022-12-18T15:13:12.021Z,38.94
2022-12-18T15:16:11.211Z,38.96
2022-12-18T15:18:58.133Z,38.95
2022-12-18T15:21:51.074Z,38.91
2022-12-18T15:24:37.901Z,38.76
2022-12-18T15:27:45.012Z,38.78
2022-12-18T15:30:32.440Z,39.01
2022-12-18T15:33:34.071Z,38.97
2022-12-18T15:36:30.085Z,38.91
2022-12-18T15:39:23.041Z,38.59
2022-12-18T15:42:44.022Z,38.92
2022-12-18T15:45:38.138Z,38.94
2022-12-18T15:48:31.069Z,37.93
2022-12-18T15:51:24.404Z,38.34
2022-12-18T15:54:24.062Z,38.49
2022-12-18T15:57:24.256Z,38.32
2022-12-18T16:00:20.068Z,38.09
2022-12-18T16:03:13.225Z,37.94
2022-12-18T16:06:10.383Z,38.10
2022-12-18T16:09:03.328Z,38.05
2022-12-18T16:11:57.035Z,38.01
2022-12-18T16:14:44.043Z,38.16
2022-12-18T16:17:37.044Z,37.70
2022-12-18T16:20:30.092Z,37.86
2022-12-18T16:23:23.112Z,37.63
2022-12-18T16:26:16.065Z,37.76
2022-12-18T16:29:02.951Z,37.97
2022-12-18T16:31:56.127Z,37.93
2022-12-18T16:34:50.049Z,37.98
2022-12-18T16:37:43.138Z,37.97
2022-12-18T16:40:32.917Z,38.13
2022-12-18T16:43:26.219Z,37.87
2022-12-18T16:46:14.196Z,37.42
2022-12-18T16:49:08.131Z,37.83
2022-12-18T16:52:02.078Z,37.95
2022-12-18T16:54:56.097Z,37.77
2022-12-18T16:57:43.051Z,37.57
2022-12-18T17:00:36.176Z,37.63
2022-12-18T17:03:29.178Z,37.72
2022-12-18T17:06:16.033Z,37.38
2022-12-18T17:09:14.098Z,37.01
2022-12-18T17:12:07.139Z,37.48
2022-12-18T17:15:01.114Z,37.61
2022-12-18T17:17:47.959Z,37.76
2022-12-18T17:20:41.153Z,38.20
2022-12-18T17:23:36.217Z,38.23
2022-12-18T17:26:29.180Z,38.13
2022-12-18T17:29:29.210Z,38.43
2022-12-18T17:32:24.157Z,38.50
2022-12-18T17:35:11.181Z,38.40
2022-12-18T17:38:04.154Z,38.63
2022-12-18T17:40:54.093Z,38.13
2022-12-18T17:43:52.170Z,37.51
2022-12-18T17:46:39.375Z,38.17
2022-12-18T17:49:33.102Z,38.58
2022-12-18T17:52:26.159Z,38.48
2022-12-18T17:55:13.067Z,38.45
2022-12-18T17:58:06.109Z,38.44
2022-12-18T18:00:59.135Z,38.00
2022-12-18T18:03:53.695Z,39.29
2022-12-18T18:06:40.891Z,39.36
2022-12-18T18:09:41.207Z,39.68
2022-12-18T18:12:53.206Z,39.92
2022-12-18T18:15:46.366Z,41.03
2022-12-18T18:18:33.381Z,42.11
2022-12-18T18:21:27.200Z,43.11
2022-12-18T18:24:24.149Z,42.55
2022-12-18T18:27:17.202Z,42.48
2022-12-18T18:30:18.198Z,42.48
2022-12-18T18:33:13.614Z,42.63
2022-12-18T18:36:00.600Z,42.12
2022-12-18T18:38:54.196Z,42.36
2022-12-18T18:41:41.116Z,42.10
2022-12-18T18:44:39.170Z,41.96
2022-12-18T18:47:37.202Z,41.78
2022-12-18T18:50:30.222Z,41.80
2022-12-18T18:53:24.155Z,41.07
2022-12-18T18:59:31.337Z,41.41
2022-12-18T19:02:19.028Z,41.51
2022-12-18T19:05:13.629Z,41.18
2022-12-18T19:08:00.857Z,41.75
2022-12-18T19:10:57.800Z,41.96
2022-12-18T19:13:45.141Z,41.71
2022-12-18T19:16:39.267Z,41.53
2022-12-18T19:19:27.228Z,41.65
2022-12-18T19:22:21.217Z,41.42
2022-12-18T19:25:09.395Z,41.61
2022-12-18T19:28:03.187Z,41.56
2022-12-18T19:30:59.036Z,41.27
2022-12-18T19:33:54.362Z,41.19
2022-12-18T19:36:48.168Z,41.49
2022-12-18T19:39:41.206Z,41.15
2022-12-18T19:42:34.883Z,41.05
2022-12-18T19:45:29.250Z,41.07
2022-12-18T19:48:22.180Z,40.96
2022-12-18T19:51:13.782Z,41.13
2022-12-18T19:54:07.198Z,40.90
2022-12-18T19:57:01.167Z,40.53
2022-12-18T19:59:54.257Z,40.57
2022-12-18T20:02:43.047Z,40.34
2022-12-18T20:05:37.201Z,40.12
2022-12-18T20:08:24.062Z,40.62
2022-12-18T20:11:19.261Z,40.82
2022-12-18T20:14:06.684Z,40.18
2022-12-18T20:17:05.640Z,40.20
2022-12-18T20:19:53.526Z,40.13
2022-12-18T20:22:47.234Z,40.15
2022-12-18T20:25:40.290Z,40.06
2022-12-18T20:29:04.892Z,40.12
2022-12-18T20:35:50.233Z,40.48
2022-12-18T20:38:45.198Z,40.74
2022-12-18T20:41:39.424Z,40.52
2022-12-18T20:44:33.369Z,40.69
2022-12-18T20:47:26.239Z,40.46
2022-12-18T20:50:13.854Z,40.46
2022-12-18T20:53:07.266Z,40.01
2022-12-18T20:55:54.406Z,40.42
2022-12-18T20:58:48.255Z,40.56
2022-12-18T21:01:35.266Z,40.68
2022-12-18T21:04:30.275Z,40.53
2022-12-18T21:07:24.265Z,40.48
2022-12-18T21:10:17.243Z,40.45
2022-12-18T21:13:05.998Z,40.35
2022-12-18T21:16:02.758Z,39.46
2022-12-18T21:18:57.295Z,39.54
2022-12-18T21:21:44.779Z,39.25
2022-12-18T21:24:38.287Z,40.15
2022-12-18T21:27:39.228Z,40.20
2022-12-18T21:30:39.415Z,40.11
2022-12-18T21:33:33.224Z,40.01
2022-12-18T21:36:20.363Z,40.02
2022-12-18T21:39:13.287Z,39.61
2022-12-18T21:42:25.301Z,39.09
2022-12-18T21:45:19.326Z,39.09
2022-12-18T21:48:12.319Z,40.21
2022-12-18T21:51:06.630Z,40.07
2022-12-18T21:53:54.957Z,40.20
2022-12-18T21:56:55.271Z,40.04
2022-12-18T21:59:50.289Z,40.15
2022-12-18T22:02:37.871Z,39.92
2022-12-18T22:05:31.347Z,39.61
2022-12-18T22:08:24.298Z,39.03
2022-12-18T22:11:20.558Z,38.48
2022-12-18T22:14:16.258Z,39.36
2022-12-18T22:17:03.583Z,39.60
2022-12-18T22:19:57.268Z,39.84
2022-12-18T22:22:50.297Z,39.81
2022-12-18T22:25:43.281Z,39.43
2022-12-18T22:29:02.316Z,39.03
2022-12-18T22:31:56.255Z,39.06
2022-12-18T22:34:50.327Z,39.20
2022-12-18T22:37:44.289Z,39.19
2022-12-18T22:40:31.267Z,39.13
2022-12-18T22:43:24.359Z,39.24
2022-12-18T22:46:25.367Z,39.33
2022-12-18T22:49:23.325Z,39.53
2022-12-18T22:52:16.331Z,39.59
2022-12-18T22:55:12.394Z,39.59
2022-12-18T22:58:06.339Z,39.70
2022-12-18T23:00:59.281Z,39.82
2022-12-18T23:03:52.355Z,39.92
2022-12-18T23:06:39.950Z,40.08
2022-12-18T23:09:33.277Z,40.25
2022-12-18T23:12:26.364Z,40.21
2022-12-18T23:15:27.203Z,40.34
2022-12-18T23:18:15.361Z,40.25
2022-12-18T23:21:18.330Z,40.60
2022-12-18T23:24:05.817Z,40.49
2022-12-18T23:26:59.316Z,40.59
2022-12-18T23:29:59.370Z,40.76
2022-12-18T23:32:52.337Z,40.60
2022-12-18T23:35:46.439Z,40.59
2022-12-18T23:38:34.598Z,40.38
2022-12-18T23:41:32.315Z,40.51
2022-12-18T23:44:19.136Z,40.33
2022-12-18T23:47:13.402Z,40.33
2022-12-18T23:50:00.211Z,40.07
2022-12-18T23:52:54.343Z,40.14
2022-12-18T23:55:44.371Z,40.34
2022-12-18T23:58:38.294Z,40.20
